Aviation Digital Data Service (ADDS)

Output produced by METARs form (0313 UTC 30 September 2016)
found at http://aviationweather.gov/adds/metars/
 
KPQI 300253Z 3003/3024 VRB03KT 5SM BR SCT001 
     TEMPO 3003/3007 2SM BR BKN001 
     FM300700 00000KT 3SM BR SCT001 
     TEMPO 3007/3011 1SM BR BKN001 
     FM301300 32003KT P6SM SKC